createdAt,value
2018-02-25T00:00:35.005Z,27.23
2018-02-25T00:03:01.622Z,27.77
2018-02-25T00:05:28.344Z,28.40
2018-02-25T00:07:54.954Z,25.23
2018-02-25T00:10:21.574Z,28.83
2018-02-25T00:12:48.253Z,27.17
2018-02-25T00:15:14.866Z,28.60
2018-02-25T00:17:41.482Z,27.87
2018-02-25T00:20:08.139Z,29.15
2018-02-25T00:22:34.776Z,28.35
2018-02-25T00:25:01.420Z,31.50
2018-02-25T00:27:28.050Z,28.92
2018-02-25T00:29:54.663Z,29.05
2018-02-25T00:32:21.282Z,29.15
2018-02-25T00:34:48.014Z,42.08
2018-02-25T00:37:14.710Z,29.60
2018-02-25T00:39:41.353Z,30.05
2018-02-25T00:42:07.985Z,36.75
2018-02-25T00:44:34.635Z,31.25
2018-02-25T00:47:01.273Z,35.55
2018-02-25T00:49:27.989Z,31.27
2018-02-25T00:51:54.621Z,32.67
2018-02-25T00:54:21.234Z,32.17
2018-02-25T00:56:47.866Z,31.75
2018-02-25T00:59:14.566Z,29.92
2018-02-25T01:01:41.209Z,31.08
2018-02-25T01:04:07.952Z,30.62
2018-02-25T01:06:34.566Z,33.03
2018-02-25T01:09:01.229Z,33.42
2018-02-25T01:11:27.853Z,29.27
2018-02-25T01:13:54.465Z,34.60
2018-02-25T01:16:21.150Z,32.03
2018-02-25T01:18:47.880Z,31.15
2018-02-25T01:21:14.494Z,30.85
2018-02-25T01:23:41.166Z,35.47
2018-02-25T01:26:07.795Z,31.98
2018-02-25T01:28:34.411Z,34.40
2018-02-25T01:31:01.082Z,29.92
2018-02-25T01:33:27.710Z,33.30
2018-02-25T01:35:54.322Z,30.23
2018-02-25T01:38:21.004Z,33.65
2018-02-25T01:40:47.629Z,28.92
2018-02-25T01:43:14.242Z,29.15
2018-02-25T01:45:40.918Z,35.58
2018-02-25T01:48:07.550Z,33.05
2018-02-25T01:50:40.054Z,37.63
2018-02-25T01:53:06.686Z,31.55
2018-02-25T01:55:33.412Z,30.20
2018-02-25T01:58:00.050Z,28.92
2018-02-25T02:00:26.678Z,29.90
2018-02-25T02:02:53.290Z,31.90
2018-02-25T02:05:19.974Z,30.10
2018-02-25T02:07:46.750Z,27.80
2018-02-25T02:10:13.363Z,31.95
2018-02-25T02:12:39.999Z,33.08
2018-02-25T02:15:06.627Z,30.58
2018-02-25T02:17:33.266Z,30.35
2018-02-25T02:19:59.878Z,31.98
2018-02-25T02:22:26.506Z,33.95
2018-02-25T02:24:53.121Z,31.52
2018-02-25T02:27:19.735Z,31.52
2018-02-25T02:29:46.467Z,31.37
2018-02-25T02:32:13.092Z,32.22
2018-02-25T02:34:39.780Z,32.38
2018-02-25T02:37:06.522Z,32.22
2018-02-25T02:39:33.228Z,32.22
2018-02-25T02:41:59.862Z,29.12
2018-02-25T02:44:26.500Z,30.83
2018-02-25T02:46:53.114Z,34.53
2018-02-25T02:49:19.722Z,33.08
2018-02-25T02:51:46.425Z,36.88
2018-02-25T02:54:13.039Z,33.45
2018-02-25T02:56:39.698Z,30.95
2018-02-25T02:59:06.439Z,31.50
2018-02-25T03:01:33.050Z,31.35
2018-02-25T03:03:59.663Z,30.45
2018-02-25T03:06:26.291Z,33.60
2018-02-25T03:08:52.917Z,30.98
2018-02-25T03:11:19.521Z,30.88
2018-02-25T03:13:46.154Z,31.52
2018-02-25T03:16:12.810Z,30.75
2018-02-25T03:18:39.423Z,30.33
2018-02-25T03:21:06.045Z,30.62
2018-02-25T03:23:32.737Z,30.95
2018-02-25T03:25:59.355Z,29.27
2018-02-25T03:28:26.011Z,30.83
2018-02-25T03:30:52.652Z,31.65
2018-02-25T03:33:19.258Z,32.05
2018-02-25T03:35:45.922Z,29.63
2018-02-25T03:38:12.563Z,31.45
2018-02-25T03:40:39.197Z,31.45
2018-02-25T03:43:05.829Z,30.10
2018-02-25T03:45:32.522Z,31.77
2018-02-25T03:47:59.133Z,29.37
2018-02-25T03:50:25.762Z,29.75
2018-02-25T03:52:52.438Z,27.77
2018-02-25T03:55:19.148Z,28.83
2018-02-25T03:57:45.766Z,31.25
2018-02-25T04:00:12.457Z,30.27
2018-02-25T04:02:39.153Z,30.37
2018-02-25T04:05:05.781Z,30.20
2018-02-25T04:07:32.477Z,34.35
2018-02-25T04:09:59.177Z,28.42
2018-02-25T04:12:25.809Z,31.55
2018-02-25T04:14:52.453Z,33.10
2018-02-25T04:17:19.094Z,31.02
2018-02-25T04:19:45.722Z,32.75
2018-02-25T04:22:12.336Z,33.30
2018-02-25T04:24:39.009Z,29.73
2018-02-25T04:27:05.749Z,32.80
2018-02-25T04:29:32.366Z,31.23
2018-02-25T04:31:59.751Z,29.80
2018-02-25T04:34:26.377Z,29.70
2018-02-25T04:36:52.990Z,32.83
2018-02-25T04:39:19.668Z,30.98
2018-02-25T04:41:46.298Z,30.17
2018-02-25T04:44:12.912Z,30.60
2018-02-25T04:46:39.527Z,34.50
2018-02-25T04:49:06.157Z,29.65
2018-02-25T04:51:33.630Z,29.35
2018-02-25T04:54:00.246Z,28.33
2018-02-25T04:56:26.874Z,27.90
2018-02-25T04:58:53.486Z,30.42
2018-02-25T05:01:20.098Z,29.05
2018-02-25T05:03:46.730Z,30.88
2018-02-25T05:06:13.337Z,28.55
2018-02-25T05:08:39.945Z,28.98
2018-02-25T05:11:06.570Z,30.92
2018-02-25T05:13:33.228Z,29.50
2018-02-25T05:15:59.862Z,32.25
2018-02-25T05:18:26.493Z,30.25
2018-02-25T05:20:53.109Z,30.00
2018-02-25T05:23:19.723Z,32.15
2018-02-25T05:25:46.422Z,37.47
2018-02-25T05:28:13.037Z,38.30
2018-02-25T05:30:39.654Z,46.95
2018-02-25T05:33:06.382Z,30.12
2018-02-25T05:35:32.992Z,31.85
2018-02-25T05:37:59.596Z,32.83
2018-02-25T05:40:26.235Z,33.38
2018-02-25T05:42:52.900Z,30.58
2018-02-25T05:45:19.509Z,32.83
2018-02-25T05:47:46.179Z,31.50
2018-02-25T05:50:12.856Z,32.78
2018-02-25T05:52:39.557Z,31.90
2018-02-25T05:55:06.186Z,34.45
2018-02-25T05:57:32.798Z,34.55
2018-02-25T05:59:59.410Z,31.35
2018-02-25T06:02:26.113Z,32.38
2018-02-25T06:04:52.725Z,33.53
2018-02-25T06:07:19.338Z,34.45
2018-02-25T06:09:45.968Z,36.75
2018-02-25T06:12:12.609Z,33.22
2018-02-25T06:14:39.219Z,32.13
2018-02-25T06:17:05.855Z,32.75
2018-02-25T06:19:32.485Z,32.22
2018-02-25T06:21:59.164Z,32.83
2018-02-25T06:24:25.865Z,30.85
2018-02-25T06:26:52.490Z,31.08
2018-02-25T06:29:19.106Z,35.25
2018-02-25T06:31:45.741Z,32.00
2018-02-25T06:34:12.421Z,29.92
2018-02-25T06:36:39.063Z,32.47
2018-02-25T06:39:05.690Z,32.72
2018-02-25T06:41:32.309Z,33.88
2018-02-25T06:43:58.910Z,34.58
2018-02-25T06:46:25.537Z,32.13
2018-02-25T06:48:52.194Z,33.63
2018-02-25T06:51:18.809Z,32.38
2018-02-25T06:53:45.454Z,32.40
2018-02-25T06:56:12.065Z,31.30
2018-02-25T06:58:38.673Z,30.48
2018-02-25T07:01:05.350Z,28.85
2018-02-25T07:03:31.986Z,27.25
2018-02-25T07:05:58.634Z,34.50
2018-02-25T07:08:25.268Z,31.62
2018-02-25T07:10:51.880Z,32.65
2018-02-25T07:13:18.547Z,31.30
2018-02-25T07:15:45.201Z,28.42
2018-02-25T07:18:11.821Z,29.48
2018-02-25T07:20:38.462Z,31.00
2018-02-25T07:23:05.216Z,31.65
2018-02-25T07:25:31.842Z,29.73
2018-02-25T07:27:58.450Z,28.30
2018-02-25T07:30:25.086Z,29.55
2018-02-25T07:32:51.702Z,28.73
2018-02-25T07:35:18.318Z,30.98
2018-02-25T07:37:45.034Z,34.70
2018-02-25T07:40:11.650Z,26.80
2018-02-25T07:42:38.317Z,27.48
2018-02-25T07:45:04.946Z,28.55
2018-02-25T07:47:31.561Z,29.60
2018-02-25T07:49:58.238Z,28.77
2018-02-25T07:52:24.866Z,24.55
2018-02-25T07:54:51.523Z,26.50
2018-02-25T07:57:18.129Z,26.67
2018-02-25T07:59:44.763Z,26.10
2018-02-25T08:02:11.377Z,30.75
2018-02-25T08:04:38.074Z,26.52
2018-02-25T08:07:04.708Z,24.27
2018-02-25T08:09:31.341Z,25.08
2018-02-25T08:11:58.228Z,25.92
2018-02-25T08:14:24.935Z,23.65
2018-02-25T08:16:51.612Z,24.87
2018-02-25T08:19:18.222Z,24.98
2018-02-25T08:21:44.858Z,23.65
2018-02-25T08:24:11.482Z,23.02
2018-02-25T08:26:38.089Z,24.02
2018-02-25T08:29:04.719Z,23.80
2018-02-25T08:31:31.400Z,21.62
2018-02-25T08:33:58.018Z,23.08
2018-02-25T08:36:24.645Z,20.58
2018-02-25T08:38:51.261Z,21.40
2018-02-25T08:41:17.869Z,20.70
2018-02-25T08:43:44.502Z,20.77
2018-02-25T08:46:11.146Z,21.80
2018-02-25T08:48:37.818Z,20.20
2018-02-25T08:51:04.453Z,18.42
2018-02-25T08:53:31.062Z,18.95
2018-02-25T08:55:57.738Z,18.73
2018-02-25T08:58:24.365Z,20.48
2018-02-25T09:00:50.985Z,21.62
2018-02-25T09:03:17.652Z,20.95
2018-02-25T09:05:44.280Z,19.65
2018-02-25T09:08:10.891Z,20.17
2018-02-25T09:10:37.492Z,18.00
2018-02-25T09:13:04.125Z,18.25
2018-02-25T09:15:30.811Z,17.73
2018-02-25T09:17:57.449Z,19.77
2018-02-25T09:20:24.081Z,19.20
2018-02-25T09:22:50.699Z,17.98
2018-02-25T09:25:17.320Z,18.70
2018-02-25T09:27:44.002Z,17.77
2018-02-25T09:30:10.649Z,18.10
2018-02-25T09:32:37.322Z,18.25
2018-02-25T09:35:04.022Z,18.45
2018-02-25T09:37:30.637Z,18.12
2018-02-25T09:39:57.258Z,17.50
2018-02-25T09:42:23.938Z,16.90
2018-02-25T09:44:50.558Z,16.90
2018-02-25T09:47:17.221Z,16.70
2018-02-25T09:49:43.850Z,17.37
2018-02-25T09:52:10.463Z,17.10
2018-02-25T09:54:37.077Z,18.33
2018-02-25T09:57:03.711Z,19.27
2018-02-25T09:59:30.414Z,16.23
2018-02-25T10:01:57.058Z,19.02
2018-02-25T10:04:23.690Z,18.37
2018-02-25T10:06:50.310Z,16.23
2018-02-25T10:09:16.970Z,18.27
2018-02-25T10:11:43.606Z,18.48
2018-02-25T10:14:10.259Z,17.67
2018-02-25T10:16:36.841Z,17.17
2018-02-25T10:19:03.525Z,17.95
2018-02-25T10:21:30.166Z,18.33
2018-02-25T10:23:56.787Z,16.80
2018-02-25T10:26:23.413Z,19.30
2018-02-25T10:28:50.038Z,19.55
2018-02-25T10:31:16.645Z,17.17
2018-02-25T10:33:43.277Z,18.17
2018-02-25T10:36:09.890Z,17.33
2018-02-25T10:38:36.514Z,18.80
2018-02-25T10:41:03.150Z,19.10
2018-02-25T10:43:29.757Z,18.95
2018-02-25T10:45:56.369Z,19.55
2018-02-25T10:48:23.002Z,19.55
2018-02-25T10:50:49.618Z,18.80
2018-02-25T10:53:16.234Z,18.20
2018-02-25T10:55:42.861Z,17.40
2018-02-25T10:58:09.480Z,17.70
2018-02-25T11:00:36.754Z,17.02
2018-02-25T11:03:03.542Z,15.93
2018-02-25T11:05:30.222Z,18.85
2018-02-25T11:07:56.810Z,19.37
2018-02-25T11:10:23.451Z,17.55
2018-02-25T11:12:50.956Z,17.77
2018-02-25T11:15:17.701Z,18.25
2018-02-25T11:17:44.331Z,16.45
2018-02-25T11:20:10.950Z,18.20
2018-02-25T11:22:37.618Z,18.87
2018-02-25T11:25:04.247Z,17.67
2018-02-25T11:27:30.963Z,16.85
2018-02-25T11:29:57.583Z,17.60
2018-02-25T11:32:24.230Z,17.65
2018-02-25T11:34:50.853Z,18.75
2018-02-25T11:37:17.486Z,16.75
2018-02-25T11:39:44.158Z,19.17
2018-02-25T11:42:10.776Z,17.58
2018-02-25T11:44:37.394Z,17.62
2018-02-25T11:47:04.027Z,17.05
2018-02-25T11:49:30.642Z,16.50
2018-02-25T11:51:57.350Z,17.20
2018-02-25T11:54:24.092Z,15.00
2018-02-25T11:56:50.705Z,26.08
2018-02-25T11:59:17.366Z,14.68
2018-02-25T12:01:44.013Z,14.45
2018-02-25T12:04:10.622Z,14.38
2018-02-25T12:06:37.233Z,13.35
2018-02-25T12:09:03.966Z,13.02
2018-02-25T12:11:30.593Z,14.65
2018-02-25T12:13:57.206Z,12.43
2018-02-25T12:16:23.943Z,14.10
2018-02-25T12:18:50.552Z,13.57
2018-02-25T12:21:17.262Z,13.80
2018-02-25T12:23:43.889Z,15.10
2018-02-25T12:26:10.502Z,15.02
2018-02-25T12:28:37.180Z,14.15
2018-02-25T12:31:03.882Z,13.88
2018-02-25T12:33:30.502Z,13.07
2018-02-25T12:35:57.162Z,14.13
2018-02-25T12:38:23.901Z,11.35
2018-02-25T12:40:50.568Z,14.43
2018-02-25T12:43:17.220Z,12.05
2018-02-25T12:45:43.850Z,13.35
2018-02-25T12:48:10.457Z,11.98
2018-02-25T12:50:37.103Z,13.68
2018-02-25T12:53:03.738Z,13.45
2018-02-25T12:55:30.371Z,12.80
2018-02-25T12:57:57.016Z,12.07
2018-02-25T13:00:23.648Z,12.82
2018-02-25T13:02:50.295Z,10.80
2018-02-25T13:05:16.910Z,10.13
2018-02-25T13:07:43.542Z,14.15
2018-02-25T13:10:10.206Z,10.45
2018-02-25T13:12:36.822Z,11.70
2018-02-25T13:15:03.482Z,11.02
2018-02-25T13:17:30.167Z,15.70
2018-02-25T13:19:56.773Z,11.15
2018-02-25T13:22:23.511Z,14.77
2018-02-25T13:24:50.150Z,14.63
2018-02-25T13:27:16.770Z,13.00
2018-02-25T13:29:43.401Z,11.55
2018-02-25T13:32:10.517Z,13.30
2018-02-25T13:34:37.255Z,12.37
2018-02-25T13:37:05.883Z,10.93
2018-02-25T13:39:33.503Z,19.33
2018-02-25T13:42:00.553Z,16.17
2018-02-25T13:44:28.009Z,11.02
2018-02-25T13:46:56.038Z,10.55
2018-02-25T13:49:24.462Z,12.15
2018-02-25T13:51:51.511Z,10.13
2018-02-25T13:54:19.890Z,14.07
2018-02-25T13:56:47.761Z,26.85
2018-02-25T13:59:16.385Z,15.13
2018-02-25T14:01:44.882Z,8.93
2018-02-25T14:04:15.430Z,10.20
2018-02-25T14:06:45.708Z,8.27
2018-02-25T14:09:13.430Z,9.05
2018-02-25T14:11:43.854Z,13.00
2018-02-25T14:14:10.924Z,27.52
2018-02-25T14:16:37.870Z,23.40
2018-02-25T14:19:04.953Z,10.02
2018-02-25T14:21:32.172Z,9.48
2018-02-25T14:24:04.443Z,12.50
2018-02-25T14:26:32.338Z,11.10
2018-02-25T14:29:01.727Z,9.88
2018-02-25T14:31:28.867Z,12.43
2018-02-25T14:33:56.489Z,10.90
2018-02-25T14:36:23.580Z,12.10
2018-02-25T14:38:50.629Z,15.60
2018-02-25T14:41:18.781Z,12.23
2018-02-25T14:43:46.176Z,15.98
2018-02-25T14:46:14.802Z,16.80
2018-02-25T14:48:41.837Z,12.48
2018-02-25T14:51:08.494Z,12.95
2018-02-25T14:53:35.103Z,10.65
2018-02-25T14:56:01.775Z,13.93
2018-02-25T14:58:29.781Z,14.45
2018-02-25T15:00:59.191Z,15.65
2018-02-25T15:03:27.470Z,10.82
2018-02-25T15:05:56.742Z,16.33
2018-02-25T15:08:24.594Z,12.30
2018-02-25T15:10:51.223Z,11.63
2018-02-25T15:13:19.163Z,13.23
2018-02-25T15:15:47.211Z,13.20
2018-02-25T15:18:14.363Z,16.05
2018-02-25T15:20:42.333Z,17.70
2018-02-25T15:23:11.269Z,16.83
2018-02-25T15:25:38.067Z,12.50
2018-02-25T15:28:05.017Z,16.80
2018-02-25T15:30:31.717Z,23.30
2018-02-25T15:32:58.321Z,12.55
2018-02-25T15:35:24.975Z,15.13
2018-02-25T15:37:51.634Z,10.38
2018-02-25T15:40:18.266Z,19.55
2018-02-25T15:42:44.874Z,13.98
2018-02-25T15:45:11.551Z,16.42
2018-02-25T15:47:38.289Z,18.02
2018-02-25T15:50:05.157Z,16.80
2018-02-25T15:52:32.942Z,15.80
2018-02-25T15:55:00.093Z,21.80
2018-02-25T15:57:31.545Z,10.85
2018-02-25T15:59:58.593Z,19.77
2018-02-25T16:02:27.693Z,24.85
2018-02-25T16:04:55.261Z,11.57
2018-02-25T16:07:22.858Z,10.85
2018-02-25T16:09:51.150Z,12.05
2018-02-25T16:12:18.752Z,10.77
2018-02-25T16:14:46.459Z,14.60
2018-02-25T16:17:14.265Z,14.85
2018-02-25T16:19:44.919Z,16.35
2018-02-25T16:22:13.094Z,14.82
2018-02-25T16:24:41.579Z,13.00
2018-02-25T16:27:13.395Z,13.25
2018-02-25T16:29:41.217Z,13.00
2018-02-25T16:32:09.729Z,13.45
2018-02-25T16:34:36.494Z,18.05
2018-02-25T16:37:03.209Z,20.30
2018-02-25T16:39:29.831Z,18.40
2018-02-25T16:41:56.445Z,17.15
2018-02-25T16:44:23.184Z,15.35
2018-02-25T16:46:49.798Z,17.60
2018-02-25T16:49:16.471Z,16.73
2018-02-25T16:51:43.106Z,22.30
2018-02-25T16:54:09.719Z,17.98
2018-02-25T16:56:36.339Z,17.75
2018-02-25T16:59:02.964Z,17.92
2018-02-25T17:01:29.581Z,21.30
2018-02-25T17:03:56.202Z,17.85
2018-02-25T17:06:22.835Z,18.58
2018-02-25T17:08:49.533Z,19.60
2018-02-25T17:11:16.148Z,20.67
2018-02-25T17:13:42.774Z,25.92
2018-02-25T17:16:09.454Z,17.70
2018-02-25T17:18:36.070Z,26.62
2018-02-25T17:21:02.711Z,18.58
2018-02-25T17:23:29.326Z,21.98
2018-02-25T17:25:56.054Z,21.80
2018-02-25T17:28:22.690Z,17.45
2018-02-25T17:30:49.375Z,17.67
2018-02-25T17:33:16.047Z,20.75
2018-02-25T17:35:42.677Z,19.85
2018-02-25T17:38:09.289Z,17.87
2018-02-25T17:40:35.990Z,19.33
2018-02-25T17:43:02.618Z,19.98
2018-02-25T17:45:29.234Z,19.37
2018-02-25T17:47:55.846Z,20.33
2018-02-25T17:50:22.479Z,19.00
2018-02-25T17:52:49.100Z,17.55
2018-02-25T17:55:24.375Z,20.17
2018-02-25T17:57:42.422Z,19.58
2018-02-25T18:00:09.033Z,20.15
2018-02-25T18:02:35.703Z,21.05
2018-02-25T18:05:02.334Z,18.77
2018-02-25T18:07:28.980Z,20.67
2018-02-25T18:09:55.602Z,19.98
2018-02-25T18:12:22.254Z,20.05
2018-02-25T18:14:48.871Z,17.92
2018-02-25T18:17:15.491Z,19.37
2018-02-25T18:19:42.121Z,20.62
2018-02-25T18:22:08.810Z,17.37
2018-02-25T18:24:35.426Z,18.65
2018-02-25T18:27:02.061Z,19.52
2018-02-25T18:29:28.686Z,18.50
2018-02-25T18:31:55.368Z,20.35
2018-02-25T18:34:22.010Z,17.23
2018-02-25T18:36:48.646Z,17.17
2018-02-25T18:39:15.266Z,17.85
2018-02-25T18:41:41.932Z,18.48
2018-02-25T18:44:08.546Z,18.73
2018-02-25T18:46:35.216Z,18.90
2018-02-25T18:49:01.842Z,20.50
2018-02-25T18:51:28.462Z,17.40
2018-02-25T18:53:55.090Z,19.45
2018-02-25T18:56:21.720Z,18.83
2018-02-25T18:58:48.334Z,19.30
2018-02-25T19:01:14.950Z,18.83
2018-02-25T19:03:41.582Z,19.73
2018-02-25T19:06:08.203Z,18.75
2018-02-25T19:08:34.850Z,19.60
2018-02-25T19:11:01.599Z,20.60
2018-02-25T19:13:28.214Z,19.35
2018-02-25T19:15:54.833Z,17.45
2018-02-25T19:18:21.473Z,19.37
2018-02-25T19:20:48.095Z,19.83
2018-02-25T19:23:14.790Z,19.58
2018-02-25T19:25:41.417Z,19.45
2018-02-25T19:28:08.034Z,19.15
2018-02-25T19:30:34.658Z,19.02
2018-02-25T19:33:01.290Z,19.55
2018-02-25T19:35:48.625Z,19.08
2018-02-25T19:38:21.054Z,20.77
2018-02-25T19:40:53.432Z,18.50
2018-02-25T19:43:20.161Z,19.50
2018-02-25T19:45:46.794Z,19.87
2018-02-25T19:48:13.447Z,20.73
2018-02-25T19:50:40.066Z,19.95
2018-02-25T19:53:06.698Z,19.48
2018-02-25T19:55:33.314Z,20.70
2018-02-25T19:57:59.935Z,19.20
2018-02-25T20:00:26.582Z,19.00
2018-02-25T20:02:53.271Z,19.58
2018-02-25T20:05:19.915Z,21.08
2018-02-25T20:07:46.568Z,19.67
2018-02-25T20:10:13.170Z,20.62
2018-02-25T20:12:39.867Z,19.85
2018-02-25T20:15:06.566Z,20.55
2018-02-25T20:17:33.205Z,19.80
2018-02-25T20:19:59.818Z,20.85
2018-02-25T20:22:26.463Z,21.00
2018-02-25T20:24:53.083Z,21.50
2018-02-25T20:27:19.702Z,19.98
2018-02-25T20:29:46.383Z,20.37
2018-02-25T20:32:13.019Z,21.55
2018-02-25T20:34:39.643Z,19.90
2018-02-25T20:37:06.360Z,21.30
2018-02-25T20:39:32.970Z,23.05
2018-02-25T20:41:59.595Z,22.92
2018-02-25T20:44:26.231Z,21.05
2018-02-25T20:46:52.842Z,25.65
2018-02-25T20:49:19.459Z,21.60
2018-02-25T20:51:46.142Z,21.98
2018-02-25T20:54:12.763Z,20.98
2018-02-25T20:56:39.382Z,21.70
2018-02-25T20:59:06.071Z,22.70
2018-02-25T21:01:32.687Z,23.27
2018-02-25T21:03:59.306Z,21.83
2018-02-25T21:06:25.941Z,22.45
2018-02-25T21:08:52.558Z,23.30
2018-02-25T21:11:19.270Z,21.15
2018-02-25T21:13:45.947Z,22.70
2018-02-25T21:16:12.567Z,22.55
2018-02-25T21:18:39.193Z,21.37
2018-02-25T21:21:05.826Z,22.62
2018-02-25T21:23:32.504Z,23.05
2018-02-25T21:25:59.128Z,24.25
2018-02-25T21:28:25.849Z,22.55
2018-02-25T21:30:52.483Z,22.15
2018-02-25T21:33:19.098Z,22.85
2018-02-25T21:35:45.730Z,24.77
2018-02-25T21:38:12.346Z,21.45
2018-02-25T21:40:38.962Z,21.45
2018-02-25T21:43:05.598Z,23.42
2018-02-25T21:45:32.218Z,21.42
2018-02-25T21:47:58.896Z,22.75
2018-02-25T21:50:25.529Z,22.40
2018-02-25T21:52:52.141Z,22.98
2018-02-25T21:55:18.767Z,23.92
2018-02-25T21:57:51.150Z,20.98
2018-02-25T22:00:17.777Z,21.67
2018-02-25T22:03:04.301Z,22.05
2018-02-25T22:05:30.918Z,24.90
2018-02-25T22:07:57.564Z,22.20
2018-02-25T22:10:24.206Z,21.40
2018-02-25T22:12:50.829Z,21.45
2018-02-25T22:15:17.451Z,24.58
2018-02-25T22:17:44.086Z,25.48
2018-02-25T22:20:10.774Z,21.75
2018-02-25T22:22:37.406Z,25.85
2018-02-25T22:25:04.151Z,24.12
2018-02-25T22:27:30.770Z,23.25
2018-02-25T22:29:57.382Z,22.52
2018-02-25T22:32:24.018Z,24.05
2018-02-25T22:34:50.688Z,23.05
2018-02-25T22:37:17.337Z,23.60
2018-02-25T22:39:43.988Z,22.70
2018-02-25T22:42:10.607Z,24.98
2018-02-25T22:44:37.222Z,21.62
2018-02-25T22:47:03.936Z,24.58
2018-02-25T22:49:30.642Z,23.87
2018-02-25T22:51:57.269Z,23.42
2018-02-25T22:54:23.903Z,24.02
2018-02-25T22:56:50.554Z,22.95
2018-02-25T22:59:17.178Z,25.37
2018-02-25T23:01:43.809Z,23.75
2018-02-25T23:04:10.426Z,22.27
2018-02-25T23:06:37.110Z,23.62
2018-02-25T23:09:03.789Z,23.60
2018-02-25T23:11:30.403Z,24.35
2018-02-25T23:13:57.130Z,23.48
2018-02-25T23:16:23.898Z,26.40
2018-02-25T23:18:50.518Z,24.80
2018-02-25T23:21:17.143Z,24.55
2018-02-25T23:23:43.798Z,22.87
2018-02-25T23:26:10.415Z,24.20
2018-02-25T23:28:37.070Z,23.45
2018-02-25T23:31:03.714Z,23.70
2018-02-25T23:33:30.387Z,22.23
2018-02-25T23:35:57.090Z,22.05
2018-02-25T23:38:23.719Z,24.92
2018-02-25T23:40:50.366Z,23.45
2018-02-25T23:43:17.010Z,22.02
2018-02-25T23:45:43.647Z,23.00
2018-02-25T23:48:10.266Z,24.92
2018-02-25T23:50:36.922Z,24.33
2018-02-25T23:53:03.556Z,23.90
2018-02-25T23:55:30.172Z,24.25
2018-02-25T23:57:56.846Z,22.50
